Página principal
METAR-TAF:

METAR-TAF

Aeroportos :

Pointe-Noire, Congo

latitude: 04-49S, longitude: 011-54E, altura: 17 m

Observação actual do tempo

O boletim foi feito há 45 minutos, às 12:00 UTC
Vento 6 kt de oes-sudoeste, variando entre su-sudoeste e oes-noroeste
Temperatura 26°C
Humidade 70%
Pressão 1013 hPa
Visibilidade 10 km ou mais
Nuvens dispersasa uma altura de 1500 ft
Nuvens fragmentadasa uma altura de 2300 ft

METAR: FCPP 181200Z 25006KT 210V290 9999 SCT015 BKN023 26/20 Q1013 NOSIG

Hora: 13:45 (12:45 UTC)

Previsão

O boletim foi feito há 1 hora e 45 minutos, às 11:00 UTC
Previsão válida de 18 às 12 UTC a 19 às 12 UTC
Vento 8 kt de su-sudoeste
Visibilidade 10 km ou mais
Nuvens dispersasa uma altura de 1300 ft
Nuvens fragmentadasa uma altura de 2300 ft

TAF: FCPP 181100Z 1812/1912 20008KT 9999 SCT013 BKN023

Observações e previsões do tempo de mais de 4000 aeroportos (mensagens METAR e TAF).

As estações disponíveis são os pontos amarelos e vermelhos sobre o mapa.

Mova o rato sobre o mapa para ver o nome da estação.

Depois clique no ponto para visualizar as observações e previsões meteorológicas.

Para alterar o mapa : clique nos botões verdes com uma cruz preta para aumentar o zoom; no botão verde com uma pitada de zoom; ou nas setas verdes para mapas adjacentes.


METAR-TAF: